Thursday, May 24, 2018, 1:46 PM EDT
Back to Local

KMIV, Millville Municipal Airport

Location: Millville, NJ, United States Lat: 39.367
Local Time: 1:46 PM EDT (17:46 GMT) Lon: -75.083
Time Zone: US/Eastern Elev: 85 ft

Show me the last for .
Show Decoded

2018-05-24 12:54 METAR KMIV 241654Z AUTO 02008KT 10SM CLR 27/04 A3015 RMK AO2 SLP207 T02720044 =
2018-05-24 11:54 METAR KMIV 241554Z AUTO 36010KT 10SM CLR 27/06 A3015 RMK AO2 SLP209 T02670061 =
2018-05-24 10:54 METAR KMIV 241454Z AUTO 02010G18KT 10SM CLR 26/07 A3015 RMK AO2 SLP209 T02560067
                 51004 =
2018-05-24 09:54 METAR KMIV 241354Z AUTO 35009KT 10SM CLR 24/12 A3015 RMK AO2 SLP208 T02390122 =
2018-05-24 08:54 METAR KMIV 241254Z AUTO 35008KT 10SM CLR 22/12 A3014 RMK AO2 SLP206 T02220122 =
2018-05-24 07:54 METAR KMIV 241154Z AUTO 34006KT 10SM CLR 21/13 A3014 RMK AO2 SLP204 T02060133
                 10206 20128 53021 =
2018-05-24 06:54 METAR KMIV 241054Z AUTO 34005KT 10SM CLR 18/13 A3012 RMK AO2 SLP197 T01780128 =
2018-05-24 05:54 METAR KMIV 240954Z AUTO 33004KT 10SM CLR 15/12 A3009 RMK AO2 SLP188 T01500122 =
2018-05-24 04:54 METAR KMIV 240854Z AUTO 25003KT 10SM CLR 13/12 A3008 RMK AO2 SLP183 T01280117
                 53008 =
2018-05-24 03:54 METAR KMIV 240754Z AUTO 29004KT 10SM CLR 15/13 A3006 RMK AO2 SLP179 T01500128 =
2018-05-24 02:54 METAR KMIV 240654Z AUTO 29006KT 10SM CLR 16/13 A3006 RMK AO2 SLP177 T01560133 =
2018-05-24 01:54 METAR KMIV 240554Z AUTO 29005KT 10SM CLR 15/13 A3005 RMK AO2 SLP176 T01500128
                 10233 20150 50002 =
2018-05-24 00:54 METAR KMIV 240454Z AUTO 29004KT 10SM CLR 16/13 A3005 RMK AO2 SLP176 T01560133
                 402780150 =
2018-05-23 23:54 METAR KMIV 240354Z AUTO 28006KT 10SM CLR 16/13 A3005 RMK AO2 SLP174 T01560133 =
2018-05-23 22:54 METAR KMIV 240254Z AUTO 27006KT 10SM CLR 17/14 A3005 RMK AO2 SLP173 T01670139
                 51015 =
2018-05-23 21:54 METAR KMIV 240154Z AUTO 27005KT 10SM CLR 17/14 A3004 RMK AO2 SLP171 T01670144 =
2018-05-23 20:54 METAR KMIV 240054Z AUTO 25003KT 10SM CLR 19/15 A3002 RMK AO2 SLP166 T01890150 =
2018-05-23 19:54 METAR KMIV 232354Z AUTO 32005KT 10SM CLR 23/13 A3000 RMK AO2 SLP158 T02330133
                 10278 20233 53014 =
2018-05-23 18:54 METAR KMIV 232254Z AUTO 33007KT 10SM CLR 26/13 A2998 RMK AO2 SLP149 T02560133 =
2018-05-23 17:54 METAR KMIV 232154Z AUTO 31009KT 10SM CLR 27/14 A2996 RMK AO2 SLP144 T02670144 =
2018-05-23 16:54 METAR KMIV 232054Z AUTO 34008KT 10SM FEW046 27/16 A2996 RMK AO2 SLP144 T02720161
                 58001 =
2018-05-23 15:54 METAR KMIV 231954Z AUTO 31007KT 10SM BKN070 27/17 A2996 RMK AO2 SLP144 T02670172
                 =
2018-05-23 14:54 METAR KMIV 231854Z AUTO 31010KT 10SM SCT039 BKN050 OVC070 26/17 A2997 RMK AO2
                 SLP146 T02610167 =
2018-05-23 13:54 METAR KMIV 231754Z AUTO 31012G19KT 10SM FEW040 BKN070 27/17 A2996 RMK AO2 SLP145
                 T02670167 10267 20211 52004 =

Support USWX by starting your Amazon purchase here.